sensor_id;sensor_type;location;lat;lon;timestamp;P1;durP1;ratioP1;P2;durP2;ratioP2
66437;SDS011;54537;47.972;11.662;2022-08-01T00:01:06;3.80;;;2.20;;
66437;SDS011;54537;47.972;11.662;2022-08-01T00:03:32;4.53;;;2.33;;
66437;SDS011;54537;47.972;11.662;2022-08-01T00:05:58;6.30;;;2.75;;
66437;SDS011;54537;47.972;11.662;2022-08-01T00:08:24;4.80;;;2.50;;
66437;SDS011;54537;47.972;11.662;2022-08-01T00:10:51;4.10;;;2.50;;
66437;SDS011;54537;47.972;11.662;2022-08-01T00:13:17;3.47;;;2.22;;
66437;SDS011;54537;47.972;11.662;2022-08-01T00:15:44;4.07;;;2.50;;
66437;SDS011;54537;47.972;11.662;2022-08-01T00:18:11;5.28;;;2.42;;
66437;SDS011;54537;47.972;11.662;2022-08-01T00:20:38;4.13;;;2.60;;
66437;SDS011;54537;47.972;11.662;2022-08-01T00:23:04;3.85;;;2.22;;
66437;SDS011;54537;47.972;11.662;2022-08-01T00:25:30;4.13;;;2.45;;
66437;SDS011;54537;47.972;11.662;2022-08-01T00:27:57;4.97;;;2.58;;
66437;SDS011;54537;47.972;11.662;2022-08-01T00:30:23;5.95;;;2.50;;
66437;SDS011;54537;47.972;11.662;2022-08-01T00:32:49;4.90;;;2.70;;
66437;SDS011;54537;47.972;11.662;2022-08-01T00:35:17;5.78;;;2.80;;
66437;SDS011;54537;47.972;11.662;2022-08-01T00:37:43;5.07;;;2.67;;
66437;SDS011;54537;47.972;11.662;2022-08-01T00:40:10;3.35;;;2.45;;
66437;SDS011;54537;47.972;11.662;2022-08-01T00:42:36;4.32;;;2.60;;
66437;SDS011;54537;47.972;11.662;2022-08-01T00:45:02;5.30;;;2.83;;
66437;SDS011;54537;47.972;11.662;2022-08-01T00:47:30;3.90;;;2.70;;
66437;SDS011;54537;47.972;11.662;2022-08-01T00:49:56;3.65;;;2.42;;
66437;SDS011;54537;47.972;11.662;2022-08-01T00:52:24;4.32;;;2.50;;
66437;SDS011;54537;47.972;11.662;2022-08-01T00:54:50;7.45;;;2.65;;
66437;SDS011;54537;47.972;11.662;2022-08-01T00:57:17;5.30;;;2.78;;
66437;SDS011;54537;47.972;11.662;2022-08-01T00:59:43;6.03;;;2.70;;
66437;SDS011;54537;47.972;11.662;2022-08-01T01:02:10;3.47;;;2.60;;
66437;SDS011;54537;47.972;11.662;2022-08-01T01:04:36;7.70;;;2.72;;
66437;SDS011;54537;47.972;11.662;2022-08-01T01:07:04;4.70;;;2.85;;
66437;SDS011;54537;47.972;11.662;2022-08-01T01:09:35;4.20;;;2.72;;
66437;SDS011;54537;47.972;11.662;2022-08-01T01:12:12;7.97;;;2.85;;
66437;SDS011;54537;47.972;11.662;2022-08-01T01:14:41;4.28;;;2.67;;
66437;SDS011;54537;47.972;11.662;2022-08-01T01:17:11;6.55;;;2.53;;
66437;SDS011;54537;47.972;11.662;2022-08-01T01:19:39;4.97;;;2.92;;
66437;SDS011;54537;47.972;11.662;2022-08-01T01:22:25;5.28;;;2.47;;
66437;SDS011;54537;47.972;11.662;2022-08-01T01:25:04;4.13;;;2.70;;
66437;SDS011;54537;47.972;11.662;2022-08-01T01:27:36;5.80;;;2.40;;
66437;SDS011;54537;47.972;11.662;2022-08-01T01:30:07;4.20;;;2.60;;
66437;SDS011;54537;47.972;11.662;2022-08-01T01:32:35;5.07;;;2.90;;
66437;SDS011;54537;47.972;11.662;2022-08-01T01:35:03;9.07;;;2.70;;
66437;SDS011;54537;47.972;11.662;2022-08-01T01:37:31;3.85;;;2.40;;
66437;SDS011;54537;47.972;11.662;2022-08-01T01:39:59;7.05;;;2.67;;
66437;SDS011;54537;47.972;11.662;2022-08-01T01:42:27;4.88;;;2.40;;
66437;SDS011;54537;47.972;11.662;2022-08-01T01:44:54;5.13;;;2.72;;
66437;SDS011;54537;47.972;11.662;2022-08-01T01:47:22;3.97;;;2.53;;
66437;SDS011;54537;47.972;11.662;2022-08-01T01:49:49;4.43;;;2.50;;
66437;SDS011;54537;47.972;11.662;2022-08-01T01:52:17;3.80;;;2.50;;
66437;SDS011;54537;47.972;11.662;2022-08-01T01:54:46;4.43;;;2.53;;
66437;SDS011;54537;47.972;11.662;2022-08-01T01:57:13;4.03;;;2.70;;
66437;SDS011;54537;47.972;11.662;2022-08-01T01:59:40;7.00;;;2.53;;
66437;SDS011;54537;47.972;11.662;2022-08-01T02:02:07;4.25;;;2.50;;
66437;SDS011;54537;47.972;11.662;2022-08-01T02:04:36;6.47;;;2.88;;
66437;SDS011;54537;47.972;11.662;2022-08-01T02:07:03;5.35;;;2.80;;
66437;SDS011;54537;47.972;11.662;2022-08-01T02:09:31;4.75;;;2.45;;
66437;SDS011;54537;47.972;11.662;2022-08-01T02:11:58;6.95;;;2.70;;
66437;SDS011;54537;47.972;11.662;2022-08-01T02:14:25;5.30;;;2.67;;
66437;SDS011;54537;47.972;11.662;2022-08-01T02:16:52;4.90;;;2.63;;
66437;SDS011;54537;47.972;11.662;2022-08-01T02:19:20;5.57;;;2.67;;
66437;SDS011;54537;47.972;11.662;2022-08-01T02:21:49;5.88;;;2.70;;
66437;SDS011;54537;47.972;11.662;2022-08-01T02:24:18;6.25;;;2.45;;
66437;SDS011;54537;47.972;11.662;2022-08-01T02:26:47;7.32;;;2.53;;
66437;SDS011;54537;47.972;11.662;2022-08-01T02:29:17;5.22;;;2.72;;
66437;SDS011;54537;47.972;11.662;2022-08-01T02:31:45;4.40;;;2.50;;
66437;SDS011;54537;47.972;11.662;2022-08-01T02:34:14;4.35;;;2.75;;
66437;SDS011;54537;47.972;11.662;2022-08-01T02:36:43;3.53;;;2.40;;
66437;SDS011;54537;47.972;11.662;2022-08-01T02:39:13;6.50;;;2.47;;
66437;SDS011;54537;47.972;11.662;2022-08-01T02:41:40;5.45;;;2.70;;
66437;SDS011;54537;47.972;11.662;2022-08-01T02:44:08;5.13;;;2.90;;
66437;SDS011;54537;47.972;11.662;2022-08-01T02:46:36;6.32;;;2.88;;
66437;SDS011;54537;47.972;11.662;2022-08-01T02:49:03;4.97;;;2.75;;
66437;SDS011;54537;47.972;11.662;2022-08-01T02:51:30;4.47;;;2.45;;
66437;SDS011;54537;47.972;11.662;2022-08-01T02:53:57;4.32;;;2.72;;
66437;SDS011;54537;47.972;11.662;2022-08-01T02:56:25;5.20;;;2.67;;
66437;SDS011;54537;47.972;11.662;2022-08-01T02:58:59;4.00;;;2.60;;
66437;SDS011;54537;47.972;11.662;2022-08-01T03:01:26;4.70;;;2.78;;
66437;SDS011;54537;47.972;11.662;2022-08-01T03:03:53;7.78;;;2.88;;
66437;SDS011;54537;47.972;11.662;2022-08-01T03:06:19;4.03;;;2.72;;
66437;SDS011;54537;47.972;11.662;2022-08-01T03:08:46;3.55;;;2.53;;
66437;SDS011;54537;47.972;11.662;2022-08-01T03:11:13;4.43;;;3.10;;
66437;SDS011;54537;47.972;11.662;2022-08-01T03:13:42;7.00;;;2.80;;
66437;SDS011;54537;47.972;11.662;2022-08-01T03:16:10;7.15;;;2.85;;
66437;SDS011;54537;47.972;11.662;2022-08-01T03:18:37;6.72;;;2.90;;
66437;SDS011;54537;47.972;11.662;2022-08-01T03:21:06;3.88;;;2.58;;
66437;SDS011;54537;47.972;11.662;2022-08-01T03:23:33;5.55;;;2.72;;
66437;SDS011;54537;47.972;11.662;2022-08-01T03:25:59;6.18;;;2.72;;
66437;SDS011;54537;47.972;11.662;2022-08-01T03:28:26;5.47;;;2.60;;
66437;SDS011;54537;47.972;11.662;2022-08-01T03:30:54;5.22;;;2.67;;
66437;SDS011;54537;47.972;11.662;2022-08-01T03:33:21;3.78;;;2.80;;
66437;SDS011;54537;47.972;11.662;2022-08-01T03:35:48;5.50;;;2.40;;
66437;SDS011;54537;47.972;11.662;2022-08-01T03:38:17;4.75;;;2.63;;
66437;SDS011;54537;47.972;11.662;2022-08-01T03:40:45;5.50;;;2.47;;
66437;SDS011;54537;47.972;11.662;2022-08-01T03:43:15;5.90;;;2.40;;
66437;SDS011;54537;47.972;11.662;2022-08-01T03:45:44;5.15;;;3.00;;
66437;SDS011;54537;47.972;11.662;2022-08-01T03:48:14;3.53;;;2.20;;
66437;SDS011;54537;47.972;11.662;2022-08-01T03:50:42;4.47;;;2.55;;
66437;SDS011;54537;47.972;11.662;2022-08-01T03:53:09;4.25;;;2.80;;
66437;SDS011;54537;47.972;11.662;2022-08-01T03:55:36;4.35;;;2.58;;
66437;SDS011;54537;47.972;11.662;2022-08-01T03:58:04;3.60;;;2.30;;
66437;SDS011;54537;47.972;11.662;2022-08-01T04:00:31;4.30;;;2.55;;
66437;SDS011;54537;47.972;11.662;2022-08-01T04:02:58;9.93;;;2.58;;
66437;SDS011;54537;47.972;11.662;2022-08-01T04:05:26;3.90;;;2.53;;
66437;SDS011;54537;47.972;11.662;2022-08-01T04:07:52;5.43;;;2.33;;
66437;SDS011;54537;47.972;11.662;2022-08-01T04:10:21;4.90;;;2.65;;
66437;SDS011;54537;47.972;11.662;2022-08-01T04:12:47;6.03;;;2.70;;
66437;SDS011;54537;47.972;11.662;2022-08-01T04:15:14;4.97;;;2.50;;
66437;SDS011;54537;47.972;11.662;2022-08-01T04:17:40;6.97;;;2.58;;
66437;SDS011;54537;47.972;11.662;2022-08-01T04:20:07;5.68;;;2.65;;
66437;SDS011;54537;47.972;11.662;2022-08-01T04:22:34;6.78;;;2.92;;
66437;SDS011;54537;47.972;11.662;2022-08-01T04:25:02;8.77;;;2.72;;
66437;SDS011;54537;47.972;11.662;2022-08-01T04:27:31;8.40;;;2.58;;
66437;SDS011;54537;47.972;11.662;2022-08-01T04:29:59;5.40;;;2.63;;
66437;SDS011;54537;47.972;11.662;2022-08-01T04:32:26;5.40;;;2.67;;
66437;SDS011;54537;47.972;11.662;2022-08-01T04:34:53;5.03;;;2.63;;
66437;SDS011;54537;47.972;11.662;2022-08-01T04:37:22;4.43;;;2.70;;
66437;SDS011;54537;47.972;11.662;2022-08-01T04:39:52;5.03;;;2.58;;
66437;SDS011;54537;47.972;11.662;2022-08-01T04:42:18;5.65;;;2.40;;
66437;SDS011;54537;47.972;11.662;2022-08-01T04:44:45;4.40;;;2.58;;
66437;SDS011;54537;47.972;11.662;2022-08-01T04:47:11;6.15;;;2.60;;
66437;SDS011;54537;47.972;11.662;2022-08-01T04:49:38;3.90;;;2.67;;
66437;SDS011;54537;47.972;11.662;2022-08-01T04:52:05;4.70;;;2.55;;
66437;SDS011;54537;47.972;11.662;2022-08-01T04:54:33;5.03;;;2.90;;
66437;SDS011;54537;47.972;11.662;2022-08-01T04:57:03;4.90;;;2.83;;
66437;SDS011;54537;47.972;11.662;2022-08-01T04:59:30;3.90;;;2.35;;
66437;SDS011;54537;47.972;11.662;2022-08-01T05:02:05;5.10;;;2.70;;
66437;SDS011;54537;47.972;11.662;2022-08-01T05:04:32;6.93;;;2.50;;
66437;SDS011;54537;47.972;11.662;2022-08-01T05:06:59;5.00;;;2.72;;
66437;SDS011;54537;47.972;11.662;2022-08-01T05:09:25;6.70;;;3.00;;
66437;SDS011;54537;47.972;11.662;2022-08-01T05:11:52;5.10;;;2.63;;
66437;SDS011;54537;47.972;11.662;2022-08-01T05:14:20;5.88;;;2.58;;
66437;SDS011;54537;47.972;11.662;2022-08-01T05:16:46;5.30;;;2.63;;
66437;SDS011;54537;47.972;11.662;2022-08-01T05:19:12;3.88;;;2.50;;
66437;SDS011;54537;47.972;11.662;2022-08-01T05:21:39;4.15;;;2.55;;
66437;SDS011;54537;47.972;11.662;2022-08-01T05:24:05;3.75;;;2.28;;
66437;SDS011;54537;47.972;11.662;2022-08-01T05:26:31;4.18;;;2.50;;
66437;SDS011;54537;47.972;11.662;2022-08-01T05:28:58;6.47;;;2.72;;
66437;SDS011;54537;47.972;11.662;2022-08-01T05:31:25;13.13;;;3.00;;
66437;SDS011;54537;47.972;11.662;2022-08-01T05:33:52;5.45;;;2.70;;
66437;SDS011;54537;47.972;11.662;2022-08-01T05:36:18;5.88;;;2.58;;
66437;SDS011;54537;47.972;11.662;2022-08-01T05:38:45;4.50;;;2.50;;
66437;SDS011;54537;47.972;11.662;2022-08-01T05:41:11;5.97;;;2.30;;
66437;SDS011;54537;47.972;11.662;2022-08-01T05:43:37;3.85;;;2.50;;
66437;SDS011;54537;47.972;11.662;2022-08-01T05:46:04;5.22;;;2.38;;
66437;SDS011;54537;47.972;11.662;2022-08-01T05:48:31;6.32;;;3.20;;
66437;SDS011;54537;47.972;11.662;2022-08-01T05:50:58;7.65;;;2.42;;
66437;SDS011;54537;47.972;11.662;2022-08-01T05:53:24;5.25;;;2.42;;
66437;SDS011;54537;47.972;11.662;2022-08-01T05:55:50;5.32;;;2.50;;
66437;SDS011;54537;47.972;11.662;2022-08-01T05:58:17;6.38;;;2.45;;
66437;SDS011;54537;47.972;11.662;2022-08-01T06:00:43;5.97;;;2.70;;
66437;SDS011;54537;47.972;11.662;2022-08-01T06:03:09;5.82;;;2.50;;
66437;SDS011;54537;47.972;11.662;2022-08-01T06:05:37;6.40;;;2.42;;
66437;SDS011;54537;47.972;11.662;2022-08-01T06:08:03;4.38;;;2.40;;
66437;SDS011;54537;47.972;11.662;2022-08-01T06:10:30;5.07;;;2.53;;
66437;SDS011;54537;47.972;11.662;2022-08-01T06:12:56;7.30;;;3.08;;
66437;SDS011;54537;47.972;11.662;2022-08-01T06:15:22;5.50;;;2.65;;
66437;SDS011;54537;47.972;11.662;2022-08-01T06:17:49;5.15;;;2.53;;
66437;SDS011;54537;47.972;11.662;2022-08-01T06:20:15;4.47;;;2.58;;
66437;SDS011;54537;47.972;11.662;2022-08-01T06:22:43;4.78;;;2.50;;
66437;SDS011;54537;47.972;11.662;2022-08-01T06:25:09;4.18;;;2.40;;
66437;SDS011;54537;47.972;11.662;2022-08-01T06:27:35;4.22;;;2.30;;
66437;SDS011;54537;47.972;11.662;2022-08-01T06:30:02;5.22;;;2.70;;
66437;SDS011;54537;47.972;11.662;2022-08-01T06:32:28;5.93;;;2.30;;
66437;SDS011;54537;47.972;11.662;2022-08-01T06:34:56;5.10;;;2.00;;
66437;SDS011;54537;47.972;11.662;2022-08-01T06:37:22;5.18;;;2.22;;
66437;SDS011;54537;47.972;11.662;2022-08-01T06:39:50;3.10;;;2.22;;
66437;SDS011;54537;47.972;11.662;2022-08-01T06:42:17;5.28;;;2.28;;
66437;SDS011;54537;47.972;11.662;2022-08-01T06:44:43;4.25;;;2.47;;
66437;SDS011;54537;47.972;11.662;2022-08-01T06:47:09;4.25;;;2.15;;
66437;SDS011;54537;47.972;11.662;2022-08-01T06:49:35;4.93;;;2.47;;
66437;SDS011;54537;47.972;11.662;2022-08-01T06:52:02;3.58;;;2.30;;
66437;SDS011;54537;47.972;11.662;2022-08-01T06:54:29;3.05;;;2.05;;
66437;SDS011;54537;47.972;11.662;2022-08-01T06:56:56;5.63;;;2.30;;
66437;SDS011;54537;47.972;11.662;2022-08-01T06:59:23;3.85;;;2.17;;
66437;SDS011;54537;47.972;11.662;2022-08-01T07:01:49;3.50;;;2.10;;
66437;SDS011;54537;47.972;11.662;2022-08-01T07:04:15;4.45;;;2.22;;
66437;SDS011;54537;47.972;11.662;2022-08-01T07:06:42;4.47;;;2.15;;
66437;SDS011;54537;47.972;11.662;2022-08-01T07:09:08;4.25;;;2.30;;
66437;SDS011;54537;47.972;11.662;2022-08-01T07:11:35;3.83;;;2.10;;
66437;SDS011;54537;47.972;11.662;2022-08-01T07:14:02;4.68;;;2.20;;
66437;SDS011;54537;47.972;11.662;2022-08-01T07:16:29;3.85;;;2.13;;
66437;SDS011;54537;47.972;11.662;2022-08-01T07:18:55;4.32;;;2.25;;
66437;SDS011;54537;47.972;11.662;2022-08-01T07:21:21;2.97;;;2.05;;
66437;SDS011;54537;47.972;11.662;2022-08-01T07:23:48;3.28;;;1.77;;
66437;SDS011;54537;47.972;11.662;2022-08-01T07:26:14;3.47;;;2.10;;
66437;SDS011;54537;47.972;11.662;2022-08-01T07:28:41;4.07;;;1.58;;
66437;SDS011;54537;47.972;11.662;2022-08-01T07:31:08;4.43;;;2.70;;
66437;SDS011;54537;47.972;11.662;2022-08-01T07:33:35;4.70;;;2.00;;
66437;SDS011;54537;47.972;11.662;2022-08-01T07:36:01;3.92;;;2.40;;
66437;SDS011;54537;47.972;11.662;2022-08-01T07:38:28;3.40;;;2.13;;
66437;SDS011;54537;47.972;11.662;2022-08-01T07:40:55;3.35;;;2.10;;
66437;SDS011;54537;47.972;11.662;2022-08-01T07:43:21;4.13;;;1.77;;
66437;SDS011;54537;47.972;11.662;2022-08-01T07:45:48;3.80;;;1.98;;
66437;SDS011;54537;47.972;11.662;2022-08-01T07:48:15;5.75;;;2.20;;
66437;SDS011;54537;47.972;11.662;2022-08-01T07:50:41;4.55;;;2.03;;
66437;SDS011;54537;47.972;11.662;2022-08-01T07:53:08;4.72;;;2.08;;
66437;SDS011;54537;47.972;11.662;2022-08-01T07:55:35;4.43;;;2.22;;
66437;SDS011;54537;47.972;11.662;2022-08-01T07:58:01;3.13;;;1.95;;
66437;SDS011;54537;47.972;11.662;2022-08-01T08:00:27;4.55;;;2.10;;
66437;SDS011;54537;47.972;11.662;2022-08-01T08:02:54;6.55;;;2.10;;
66437;SDS011;54537;47.972;11.662;2022-08-01T08:05:25;5.63;;;2.25;;
66437;SDS011;54537;47.972;11.662;2022-08-01T08:07:51;3.53;;;2.15;;
66437;SDS011;54537;47.972;11.662;2022-08-01T08:10:17;4.53;;;2.15;;
66437;SDS011;54537;47.972;11.662;2022-08-01T08:12:44;4.85;;;2.22;;
66437;SDS011;54537;47.972;11.662;2022-08-01T08:15:11;3.95;;;2.10;;
66437;SDS011;54537;47.972;11.662;2022-08-01T08:17:37;3.63;;;1.83;;
66437;SDS011;54537;47.972;11.662;2022-08-01T08:20:05;4.97;;;2.13;;
66437;SDS011;54537;47.972;11.662;2022-08-01T08:22:32;3.67;;;2.00;;
66437;SDS011;54537;47.972;11.662;2022-08-01T08:24:59;4.50;;;2.00;;
66437;SDS011;54537;47.972;11.662;2022-08-01T08:27:25;3.22;;;2.20;;
66437;SDS011;54537;47.972;11.662;2022-08-01T08:29:51;4.57;;;2.42;;
66437;SDS011;54537;47.972;11.662;2022-08-01T08:32:18;3.38;;;2.03;;
66437;SDS011;54537;47.972;11.662;2022-08-01T08:34:44;4.40;;;2.10;;
66437;SDS011;54537;47.972;11.662;2022-08-01T08:37:10;5.18;;;2.22;;
66437;SDS011;54537;47.972;11.662;2022-08-01T08:39:39;6.60;;;2.20;;
66437;SDS011;54537;47.972;11.662;2022-08-01T08:42:07;4.32;;;2.10;;
66437;SDS011;54537;47.972;11.662;2022-08-01T08:44:33;4.47;;;2.20;;
66437;SDS011;54537;47.972;11.662;2022-08-01T08:47:00;6.32;;;2.10;;
66437;SDS011;54537;47.972;11.662;2022-08-01T08:49:30;6.70;;;2.45;;
66437;SDS011;54537;47.972;11.662;2022-08-01T08:51:57;7.35;;;2.55;;
66437;SDS011;54537;47.972;11.662;2022-08-01T08:54:24;8.35;;;2.00;;
66437;SDS011;54537;47.972;11.662;2022-08-01T08:56:52;2.85;;;1.90;;
66437;SDS011;54537;47.972;11.662;2022-08-01T08:59:19;5.45;;;2.05;;
66437;SDS011;54537;47.972;11.662;2022-08-01T09:01:46;2.75;;;2.10;;
66437;SDS011;54537;47.972;11.662;2022-08-01T09:04:12;5.13;;;2.45;;
66437;SDS011;54537;47.972;11.662;2022-08-01T09:06:39;4.20;;;2.30;;
66437;SDS011;54537;47.972;11.662;2022-08-01T09:09:06;4.05;;;2.17;;
66437;SDS011;54537;47.972;11.662;2022-08-01T09:11:33;4.55;;;2.10;;
66437;SDS011;54537;47.972;11.662;2022-08-01T09:14:05;3.30;;;2.13;;
66437;SDS011;54537;47.972;11.662;2022-08-01T09:16:32;3.25;;;1.83;;
66437;SDS011;54537;47.972;11.662;2022-08-01T09:19:10;3.60;;;2.13;;
66437;SDS011;54537;47.972;11.662;2022-08-01T09:21:37;3.25;;;2.10;;
66437;SDS011;54537;47.972;11.662;2022-08-01T09:24:03;3.20;;;2.20;;
66437;SDS011;54537;47.972;11.662;2022-08-01T09:26:31;3.35;;;2.20;;
66437;SDS011;54537;47.972;11.662;2022-08-01T09:28:58;5.95;;;1.90;;
66437;SDS011;54537;47.972;11.662;2022-08-01T09:31:26;7.15;;;1.90;;
66437;SDS011;54537;47.972;11.662;2022-08-01T09:33:53;3.80;;;1.65;;
66437;SDS011;54537;47.972;11.662;2022-08-01T09:36:21;4.35;;;2.13;;
66437;SDS011;54537;47.972;11.662;2022-08-01T09:38:47;2.72;;;1.85;;
66437;SDS011;54537;47.972;11.662;2022-08-01T09:41:14;2.95;;;1.90;;
66437;SDS011;54537;47.972;11.662;2022-08-01T09:43:41;3.22;;;1.70;;
66437;SDS011;54537;47.972;11.662;2022-08-01T09:46:13;2.92;;;1.75;;
66437;SDS011;54537;47.972;11.662;2022-08-01T09:48:42;2.83;;;1.73;;
66437;SDS011;54537;47.972;11.662;2022-08-01T09:51:27;3.67;;;1.50;;
66437;SDS011;54537;47.972;11.662;2022-08-01T09:53:53;3.33;;;1.92;;
66437;SDS011;54537;47.972;11.662;2022-08-01T09:56:21;4.63;;;1.65;;
66437;SDS011;54537;47.972;11.662;2022-08-01T09:58:54;2.92;;;1.83;;
66437;SDS011;54537;47.972;11.662;2022-08-01T10:01:21;2.75;;;1.70;;
66437;SDS011;54537;47.972;11.662;2022-08-01T10:04:04;5.20;;;1.80;;
66437;SDS011;54537;47.972;11.662;2022-08-01T10:06:30;2.45;;;1.58;;
66437;SDS011;54537;47.972;11.662;2022-08-01T10:08:56;2.47;;;1.42;;
66437;SDS011;54537;47.972;11.662;2022-08-01T10:11:23;4.88;;;1.80;;
66437;SDS011;54537;47.972;11.662;2022-08-01T10:13:49;2.10;;;1.33;;
66437;SDS011;54537;47.972;11.662;2022-08-01T10:16:16;3.92;;;1.50;;
66437;SDS011;54537;47.972;11.662;2022-08-01T10:18:42;4.25;;;1.70;;
66437;SDS011;54537;47.972;11.662;2022-08-01T10:21:11;2.45;;;1.67;;
66437;SDS011;54537;47.972;11.662;2022-08-01T10:23:38;3.00;;;1.55;;
66437;SDS011;54537;47.972;11.662;2022-08-01T10:26:05;4.50;;;1.63;;
66437;SDS011;54537;47.972;11.662;2022-08-01T10:28:33;3.67;;;1.40;;
66437;SDS011;54537;47.972;11.662;2022-08-01T10:31:00;3.15;;;1.92;;
66437;SDS011;54537;47.972;11.662;2022-08-01T10:33:27;3.30;;;1.83;;
66437;SDS011;54537;47.972;11.662;2022-08-01T10:35:54;2.17;;;1.40;;
66437;SDS011;54537;47.972;11.662;2022-08-01T10:38:22;3.65;;;1.85;;
66437;SDS011;54537;47.972;11.662;2022-08-01T10:40:49;3.58;;;1.30;;
66437;SDS011;54537;47.972;11.662;2022-08-01T10:43:17;2.90;;;1.60;;
66437;SDS011;54537;47.972;11.662;2022-08-01T10:45:43;3.60;;;1.45;;
66437;SDS011;54537;47.972;11.662;2022-08-01T10:48:11;2.30;;;1.40;;
66437;SDS011;54537;47.972;11.662;2022-08-01T10:50:39;2.20;;;1.25;;
66437;SDS011;54537;47.972;11.662;2022-08-01T10:53:07;2.40;;;1.42;;
66437;SDS011;54537;47.972;11.662;2022-08-01T10:55:45;3.05;;;1.30;;
66437;SDS011;54537;47.972;11.662;2022-08-01T10:58:12;1.85;;;1.40;;
66437;SDS011;54537;47.972;11.662;2022-08-01T11:00:38;2.78;;;1.40;;
66437;SDS011;54537;47.972;11.662;2022-08-01T11:03:04;4.10;;;1.60;;
66437;SDS011;54537;47.972;11.662;2022-08-01T11:05:31;4.93;;;1.58;;
66437;SDS011;54537;47.972;11.662;2022-08-01T11:08:00;2.67;;;1.23;;
66437;SDS011;54537;47.972;11.662;2022-08-01T11:10:29;2.55;;;1.58;;
66437;SDS011;54537;47.972;11.662;2022-08-01T11:15:27;2.05;;;1.40;;
66437;SDS011;54537;47.972;11.662;2022-08-01T11:17:54;2.65;;;1.20;;
66437;SDS011;54537;47.972;11.662;2022-08-01T11:20:21;3.45;;;1.42;;
66437;SDS011;54537;47.972;11.662;2022-08-01T11:28:17;2.85;;;1.15;;
66437;SDS011;54537;47.972;11.662;2022-08-01T11:30:46;2.67;;;1.25;;
66437;SDS011;54537;47.972;11.662;2022-08-01T11:33:13;2.42;;;1.23;;
66437;SDS011;54537;47.972;11.662;2022-08-01T11:36:16;4.50;;;1.27;;
66437;SDS011;54537;47.972;11.662;2022-08-01T11:38:34;3.20;;;1.20;;
66437;SDS011;54537;47.972;11.662;2022-08-01T11:41:09;2.83;;;1.52;;
66437;SDS011;54537;47.972;11.662;2022-08-01T11:43:38;3.33;;;1.42;;
66437;SDS011;54537;47.972;11.662;2022-08-01T11:46:21;3.47;;;1.40;;
66437;SDS011;54537;47.972;11.662;2022-08-01T11:49:27;3.58;;;1.23;;
66437;SDS011;54537;47.972;11.662;2022-08-01T11:51:56;3.80;;;1.50;;
66437;SDS011;54537;47.972;11.662;2022-08-01T11:54:24;3.13;;;1.20;;
66437;SDS011;54537;47.972;11.662;2022-08-01T11:56:53;1.85;;;1.30;;
66437;SDS011;54537;47.972;11.662;2022-08-01T11:59:19;2.72;;;1.30;;
66437;SDS011;54537;47.972;11.662;2022-08-01T12:01:48;2.47;;;1.40;;
66437;SDS011;54537;47.972;11.662;2022-08-01T12:04:14;3.20;;;1.23;;
66437;SDS011;54537;47.972;11.662;2022-08-01T12:06:41;2.78;;;1.10;;
66437;SDS011;54537;47.972;11.662;2022-08-01T12:09:17;6.18;;;1.20;;
66437;SDS011;54537;47.972;11.662;2022-08-01T12:11:43;1.90;;;0.98;;
66437;SDS011;54537;47.972;11.662;2022-08-01T12:14:09;2.08;;;1.00;;
66437;SDS011;54537;47.972;11.662;2022-08-01T12:16:48;2.33;;;1.50;;
66437;SDS011;54537;47.972;11.662;2022-08-01T12:19:17;2.38;;;1.30;;
66437;SDS011;54537;47.972;11.662;2022-08-01T12:21:44;4.13;;;1.45;;
66437;SDS011;54537;47.972;11.662;2022-08-01T12:24:10;2.97;;;1.33;;
66437;SDS011;54537;47.972;11.662;2022-08-01T12:26:40;3.80;;;1.52;;
66437;SDS011;54537;47.972;11.662;2022-08-01T12:29:06;2.80;;;1.40;;
66437;SDS011;54537;47.972;11.662;2022-08-01T12:31:32;3.83;;;1.60;;
66437;SDS011;54537;47.972;11.662;2022-08-01T12:34:07;5.60;;;1.70;;
66437;SDS011;54537;47.972;11.662;2022-08-01T12:36:50;2.92;;;1.30;;
66437;SDS011;54537;47.972;11.662;2022-08-01T12:39:16;1.52;;;1.13;;
66437;SDS011;54537;47.972;11.662;2022-08-01T12:41:43;1.98;;;1.20;;
66437;SDS011;54537;47.972;11.662;2022-08-01T12:44:12;3.88;;;1.13;;
66437;SDS011;54537;47.972;11.662;2022-08-01T12:46:39;2.08;;;1.30;;
66437;SDS011;54537;47.972;11.662;2022-08-01T12:49:05;2.05;;;1.30;;
66437;SDS011;54537;47.972;11.662;2022-08-01T12:51:33;3.47;;;1.85;;
66437;SDS011;54537;47.972;11.662;2022-08-01T12:54:00;3.20;;;1.25;;
66437;SDS011;54537;47.972;11.662;2022-08-01T12:56:30;4.03;;;1.40;;
66437;SDS011;54537;47.972;11.662;2022-08-01T12:58:57;3.20;;;1.23;;
66437;SDS011;54537;47.972;11.662;2022-08-01T13:01:25;3.65;;;1.40;;
66437;SDS011;54537;47.972;11.662;2022-08-01T13:03:58;2.60;;;1.20;;
66437;SDS011;54537;47.972;11.662;2022-08-01T13:06:27;2.85;;;1.30;;
66437;SDS011;54537;47.972;11.662;2022-08-01T13:08:56;2.05;;;1.30;;
66437;SDS011;54537;47.972;11.662;2022-08-01T13:11:30;1.52;;;1.13;;
66437;SDS011;54537;47.972;11.662;2022-08-01T13:13:56;2.65;;;1.40;;
66437;SDS011;54537;47.972;11.662;2022-08-01T13:16:23;2.25;;;1.30;;
66437;SDS011;54537;47.972;11.662;2022-08-01T13:18:50;3.45;;;1.27;;
66437;SDS011;54537;47.972;11.662;2022-08-01T13:21:17;1.85;;;1.20;;
66437;SDS011;54537;47.972;11.662;2022-08-01T13:26:40;3.17;;;1.63;;
66437;SDS011;54537;47.972;11.662;2022-08-01T13:29:06;2.72;;;1.55;;
66437;SDS011;54537;47.972;11.662;2022-08-01T13:31:33;4.00;;;1.50;;
66437;SDS011;54537;47.972;11.662;2022-08-01T13:33:59;4.03;;;1.40;;
66437;SDS011;54537;47.972;11.662;2022-08-01T13:36:26;2.80;;;1.30;;
66437;SDS011;54537;47.972;11.662;2022-08-01T13:38:53;5.25;;;1.55;;
66437;SDS011;54537;47.972;11.662;2022-08-01T13:41:37;1.70;;;1.30;;
66437;SDS011;54537;47.972;11.662;2022-08-01T13:44:05;3.05;;;1.45;;
66437;SDS011;54537;47.972;11.662;2022-08-01T13:46:33;2.03;;;1.42;;
66437;SDS011;54537;47.972;11.662;2022-08-01T13:49:00;5.43;;;1.63;;
66437;SDS011;54537;47.972;11.662;2022-08-01T13:51:26;3.10;;;1.40;;
66437;SDS011;54537;47.972;11.662;2022-08-01T13:53:52;4.75;;;1.58;;
66437;SDS011;54537;47.972;11.662;2022-08-01T13:56:18;3.70;;;1.40;;
66437;SDS011;54537;47.972;11.662;2022-08-01T13:58:45;2.83;;;1.35;;
66437;SDS011;54537;47.972;11.662;2022-08-01T14:01:12;3.35;;;1.33;;
66437;SDS011;54537;47.972;11.662;2022-08-01T14:03:39;3.65;;;1.50;;
66437;SDS011;54537;47.972;11.662;2022-08-01T14:06:05;3.28;;;1.35;;
66437;SDS011;54537;47.972;11.662;2022-08-01T14:08:32;5.25;;;1.60;;
66437;SDS011;54537;47.972;11.662;2022-08-01T14:10:58;3.95;;;1.50;;
66437;SDS011;54537;47.972;11.662;2022-08-01T14:13:24;2.67;;;1.40;;
66437;SDS011;54537;47.972;11.662;2022-08-01T14:15:51;3.20;;;1.65;;
66437;SDS011;54537;47.972;11.662;2022-08-01T14:18:18;2.78;;;1.55;;
66437;SDS011;54537;47.972;11.662;2022-08-01T14:20:45;3.05;;;1.40;;
66437;SDS011;54537;47.972;11.662;2022-08-01T14:23:11;8.77;;;1.70;;
66437;SDS011;54537;47.972;11.662;2022-08-01T14:25:37;4.60;;;1.85;;
66437;SDS011;54537;47.972;11.662;2022-08-01T14:28:04;2.97;;;1.45;;
66437;SDS011;54537;47.972;11.662;2022-08-01T14:30:31;2.95;;;1.33;;
66437;SDS011;54537;47.972;11.662;2022-08-01T14:32:57;3.75;;;1.30;;
66437;SDS011;54537;47.972;11.662;2022-08-01T14:35:25;2.78;;;1.30;;
66437;SDS011;54537;47.972;11.662;2022-08-01T14:37:51;1.75;;;1.40;;
66437;SDS011;54537;47.972;11.662;2022-08-01T14:40:18;1.65;;;1.30;;
66437;SDS011;54537;47.972;11.662;2022-08-01T14:42:44;2.45;;;1.40;;
66437;SDS011;54537;47.972;11.662;2022-08-01T14:45:11;2.38;;;1.48;;
66437;SDS011;54537;47.972;11.662;2022-08-01T14:47:38;2.75;;;1.48;;